ADDS - METARS form results

Aviation Digital Data Service (ADDS)

Output produced by METARs form (2358 UTC 07 April 2020)
found at http://aviationweather.gov/metar/data/
 
METAR text: KVYS 072335Z AUTO 25017G23KT 10SM CLR 26/16 A2957 RMK AO2 LTG DSNT N T02570160
Conditions at: KVYS (PERU , IL, US) observed 2335 UTC 07 April 2020
Temperature: 25.7°C (78°F)
Dewpoint: 16.0°C (61°F) [RH = 55%]
Pressure (altimeter): 29.57 inches Hg (1001.4 mb)
Winds: from the WSW (250 degrees) at 20 MPH (17 knots; 8.7 m/s)
gusting to 26 MPH (23 knots; 11.8 m/s)
Visibility: 10 or more miles (16+ km)
Ceiling: at least 12,000 feet AGL
Clouds: sky clear below 12,000 feet AGL
Weather: automated observation with no human augmentation;
there may or may not be significant weather present at this time

METAR text: KVYS 072315Z AUTO 24018G22KT 10SM CLR 26/16 A2958 RMK AO2 T02630158
Conditions at: KVYS (PERU , IL, US) observed 2315 UTC 07 April 2020
Temperature: 26.3°C (79°F)
Dewpoint: 15.8°C (60°F) [RH = 52%]
Pressure (altimeter): 29.58 inches Hg (1001.8 mb)
Winds: from the WSW (240 degrees) at 21 MPH (18 knots; 9.3 m/s)
gusting to 25 MPH (22 knots; 11.3 m/s)
Visibility: 10 or more miles (16+ km)
Ceiling: at least 12,000 feet AGL
Clouds: sky clear below 12,000 feet AGL
Weather: automated observation with no human augmentation;
there may or may not be significant weather present at this time